Frontier Kotobuki — 3EXC5 — position and weather

sailwx.info

Track history (hours):
 
Tides and Currents Weather Stations Pressure Air Temp Water Temp Dewpoint Dewpoint Depression Visibility Wind Speed Wind Dir Waves Ship Positions

Frontier Kotobuki

Last reported at 2014-Oct-13 18:30 UTC. Time now 2014-Oct-21 20:01 UTC.
Position N 38°04' E 121°51'.
Warning: this ship's position is 8 days out of date.

Length 290 m; draft 18 m.

Type: Cargo ship. MMSI: 355036000.

Date/timePositionNaut miles runAvg speedWind from/ knotsBaromVisibWave heightAir tempDewpointWater temp
2014-Oct-13 18:30N 38°04' E 121°51'1312.3
2014-Oct-13 17:28N 38°10' E 121°36'1212.7
2014-Oct-13 16:32N 38°17' E 121°24'  
2014-Oct-11 08:11N 38°60' E 118°27'0 0.0
2014-Oct-11 07:29N 38°60' E 118°27'0 0.0
2014-Oct-11 00:26N 38°60' E 118°27'0 0.0
2014-Oct-10 22:23N 38°60' E 118°27'0 0.0
2014-Oct-10 21:23N 38°60' E 118°27'0 0.0
2014-Oct-10 16:23N 38°60' E 118°27'0 0.0
2014-Oct-10 13:29N 38°60' E 118°27'0 0.0
2014-Oct-10 11:30N 38°60' E 118°27'1 0.0
2014-Oct-09 07:33N 38°59' E 118°28'137 5.8
2014-Oct-08 08:06N 38°28' E 121°18'610.7
2014-Oct-08 07:33N 38°25' E 121°25'1110.9
2014-Oct-08 06:33N 38°20' E 121°37'1111.3
2014-Oct-08 05:34N 38°15' E 121°50'1111.1
2014-Oct-08 04:33N 38°11' E 122°03'1210.8
2014-Oct-08 03:28N 38°06' E 122°17'910.5
2014-Oct-08 02:33N 38°00' E 122°27'5610.5
2014-Oct-07 21:13N 37°27' E 123°23'3612.2
2014-Oct-07 18:18N 36°51' E 123°28'  
Track history (hours):
 
Tides and Currents Weather Stations Pressure Air Temp Water Temp Dewpoint Dewpoint Depression Visibility Wind Speed Wind Dir Waves Ship Positions

Frontier Kotobuki

Last reported at 2014-Oct-13 18:30 UTC. Time now 2014-Oct-21 20:01 UTC.
Position N 38°04' E 121°51'.
Warning: this ship's position is 8 days out of date.

Length 290 m; draft 18 m.

Type: Cargo ship. MMSI: 355036000.

Date/timePositionNaut miles runAvg speedWind from/ knotsBaromVisibWave heightAir tempDewpointWater temp
2014-Oct-13 18:30N 38°04' E 121°51'1312.3
2014-Oct-13 17:28N 38°10' E 121°36'1212.7
2014-Oct-13 16:32N 38°17' E 121°24'  
2014-Oct-11 08:11N 38°60' E 118°27'0 0.0
2014-Oct-11 07:29N 38°60' E 118°27'0 0.0
2014-Oct-11 00:26N 38°60' E 118°27'0 0.0
2014-Oct-10 22:23N 38°60' E 118°27'0 0.0
2014-Oct-10 21:23N 38°60' E 118°27'0 0.0
2014-Oct-10 16:23N 38°60' E 118°27'0 0.0
2014-Oct-10 13:29N 38°60' E 118°27'0 0.0
2014-Oct-10 11:30N 38°60' E 118°27'1 0.0
2014-Oct-09 07:33N 38°59' E 118°28'137 5.8
2014-Oct-08 08:06N 38°28' E 121°18'610.7
2014-Oct-08 07:33N 38°25' E 121°25'1110.9
2014-Oct-08 06:33N 38°20' E 121°37'1111.3
2014-Oct-08 05:34N 38°15' E 121°50'1111.1
2014-Oct-08 04:33N 38°11' E 122°03'1210.8
2014-Oct-08 03:28N 38°06' E 122°17'910.5
2014-Oct-08 02:33N 38°00' E 122°27'5610.5
2014-Oct-07 21:13N 37°27' E 123°23'3612.2
2014-Oct-07 18:18N 36°51' E 123°28'  

Dump ship's entire track history